createdAt,value
2018-10-18T00:01:33.208Z,68.97
2018-10-18T00:04:02.244Z,69.75
2018-10-18T00:06:31.179Z,77.35
2018-10-18T00:09:00.294Z,81.42
2018-10-18T00:11:29.433Z,78.28
2018-10-18T00:13:58.380Z,79.58
2018-10-18T00:16:27.540Z,83.17
2018-10-18T00:18:56.466Z,86.12
2018-10-18T00:21:25.420Z,82.90
2018-10-18T00:23:54.410Z,77.37
2018-10-18T00:26:23.940Z,83.80
2018-10-18T00:28:52.862Z,80.97
2018-10-18T00:31:21.811Z,84.50
2018-10-18T00:33:50.863Z,91.20
2018-10-18T00:36:19.790Z,83.35
2018-10-18T00:38:48.714Z,85.77
2018-10-18T00:41:17.652Z,88.42
2018-10-18T00:43:46.586Z,89.45
2018-10-18T00:46:15.536Z,86.72
2018-10-18T00:48:44.475Z,85.42
2018-10-18T00:51:13.480Z,86.78
2018-10-18T00:53:42.406Z,86.02
2018-10-18T00:56:11.516Z,88.55
2018-10-18T00:58:40.561Z,83.27
2018-10-18T01:01:09.505Z,86.10
2018-10-18T01:03:38.404Z,81.60
2018-10-18T01:06:07.335Z,86.02
2018-10-18T01:08:36.421Z,88.82
2018-10-18T01:11:05.349Z,97.17
2018-10-18T01:13:34.228Z,89.67
2018-10-18T01:16:03.261Z,87.65
2018-10-18T01:18:32.227Z,87.82
2018-10-18T01:21:01.160Z,90.10
2018-10-18T01:23:30.115Z,88.40
2018-10-18T01:25:59.092Z,88.58
2018-10-18T01:28:28.533Z,91.80
2018-10-18T01:30:57.475Z,84.37
2018-10-18T01:33:26.590Z,82.42
2018-10-18T01:35:55.591Z,89.25
2018-10-18T01:38:24.669Z,86.10
2018-10-18T01:40:53.610Z,84.13
2018-10-18T01:43:22.509Z,84.55
2018-10-18T01:45:51.453Z,83.15
2018-10-18T01:48:20.379Z,83.90
2018-10-18T01:50:49.315Z,83.90
2018-10-18T01:53:18.239Z,86.67
2018-10-18T01:55:47.185Z,79.30
2018-10-18T01:58:16.111Z,89.62
2018-10-18T02:00:45.051Z,88.50
2018-10-18T02:03:13.991Z,76.00
2018-10-18T02:05:42.955Z,88.90
2018-10-18T02:08:12.289Z,77.30
2018-10-18T02:10:41.377Z,87.22
2018-10-18T02:13:10.292Z,82.30
2018-10-18T02:15:39.259Z,79.37
2018-10-18T02:18:08.232Z,84.52
2018-10-18T02:20:37.325Z,74.95
2018-10-18T02:23:06.765Z,79.85
2018-10-18T02:25:35.725Z,80.42
2018-10-18T02:28:04.746Z,81.53
2018-10-18T02:30:33.686Z,81.87
2018-10-18T02:33:02.652Z,83.97
2018-10-18T02:35:31.616Z,82.08
2018-10-18T02:38:00.562Z,82.85
2018-10-18T02:40:29.499Z,82.90
2018-10-18T02:42:58.432Z,86.72
2018-10-18T02:45:27.372Z,78.72
2018-10-18T02:47:56.315Z,89.58
2018-10-18T02:50:25.418Z,81.25
2018-10-18T02:52:54.376Z,83.80
2018-10-18T02:55:23.298Z,87.42
2018-10-18T02:57:52.278Z,87.45
2018-10-18T03:00:21.305Z,89.95
2018-10-18T03:02:50.286Z,93.58
2018-10-18T03:05:19.214Z,82.90
2018-10-18T03:07:48.143Z,77.78
2018-10-18T03:10:17.066Z,81.22
2018-10-18T03:12:46.064Z,81.08
2018-10-18T03:15:15.017Z,71.85
2018-10-18T03:17:43.963Z,77.70
2018-10-18T03:20:12.895Z,80.32
2018-10-18T03:22:41.831Z,77.78
2018-10-18T03:25:11.231Z,71.25
2018-10-18T03:27:40.423Z,73.52
2018-10-18T03:30:09.699Z,80.65
2018-10-18T03:32:38.802Z,73.12
2018-10-18T03:35:08.680Z,79.00
2018-10-18T03:37:37.761Z,77.82
2018-10-18T03:40:07.267Z,74.35
2018-10-18T03:42:36.273Z,71.60
2018-10-18T03:45:06.789Z,68.50
2018-10-18T03:47:35.824Z,74.87
2018-10-18T03:50:04.864Z,71.72
2018-10-18T03:52:33.795Z,72.00
2018-10-18T03:55:02.747Z,73.92
2018-10-18T03:57:31.914Z,71.95
2018-10-18T04:00:00.920Z,74.10
2018-10-18T04:02:30.066Z,76.65
2018-10-18T04:04:58.988Z,69.58
2018-10-18T04:07:28.124Z,75.30
2018-10-18T04:09:57.051Z,74.45
2018-10-18T04:12:26.031Z,72.82
2018-10-18T04:14:55.138Z,71.97
2018-10-18T04:17:24.108Z,72.37
2018-10-18T04:19:53.346Z,74.17
2018-10-18T04:22:22.286Z,71.70
2018-10-18T04:24:51.271Z,72.50
2018-10-18T04:27:20.396Z,71.80
2018-10-18T04:29:49.352Z,74.10
2018-10-18T04:32:18.334Z,72.72
2018-10-18T04:34:47.282Z,74.70
2018-10-18T04:37:16.323Z,74.53
2018-10-18T04:39:45.418Z,69.60
2018-10-18T04:42:14.390Z,71.45
2018-10-18T04:44:43.618Z,71.97
2018-10-18T04:47:12.593Z,79.17
2018-10-18T04:49:41.741Z,77.40
2018-10-18T04:52:10.680Z,80.57
2018-10-18T04:54:39.622Z,76.17
2018-10-18T04:57:09.132Z,78.70
2018-10-18T04:59:38.072Z,73.50
2018-10-18T05:02:07.042Z,75.83
2018-10-18T05:04:36.030Z,83.30
2018-10-18T05:07:05.596Z,78.42
2018-10-18T05:09:34.801Z,81.90
2018-10-18T05:12:03.766Z,81.40
2018-10-18T05:14:32.733Z,83.27
2018-10-18T05:17:01.655Z,87.22
2018-10-18T05:19:30.616Z,83.37
2018-10-18T05:21:59.571Z,83.30
2018-10-18T05:24:28.519Z,88.33
2018-10-18T05:26:57.419Z,84.05
2018-10-18T05:29:26.389Z,87.70
2018-10-18T05:31:55.403Z,85.92
2018-10-18T05:34:24.334Z,86.17
2018-10-18T05:36:53.358Z,82.35
2018-10-18T05:39:22.409Z,89.60
2018-10-18T05:41:51.411Z,85.42
2018-10-18T05:44:20.376Z,88.30
2018-10-18T05:46:49.447Z,83.82
2018-10-18T05:49:18.540Z,93.82
2018-10-18T05:51:47.611Z,93.27
2018-10-18T05:54:16.597Z,87.75
2018-10-18T05:56:45.765Z,89.70
2018-10-18T05:59:14.763Z,90.62
2018-10-18T06:01:43.744Z,104.85
2018-10-18T06:04:12.713Z,91.08
2018-10-18T06:06:41.694Z,88.20
2018-10-18T06:09:12.366Z,81.02
2018-10-18T06:11:41.359Z,81.57
2018-10-18T06:14:10.414Z,84.92
2018-10-18T06:16:39.364Z,82.12
2018-10-18T06:19:08.456Z,89.75
2018-10-18T06:21:37.610Z,86.00
2018-10-18T06:24:06.223Z,77.95
2018-10-18T06:26:35.217Z,90.45
2018-10-18T06:29:04.626Z,87.72
2018-10-18T06:31:33.877Z,91.02
2018-10-18T06:34:02.891Z,88.07
2018-10-18T06:36:32.283Z,86.02
2018-10-18T06:39:01.453Z,85.22
2018-10-18T06:41:30.684Z,88.60
2018-10-18T06:43:59.671Z,87.47
2018-10-18T06:46:28.763Z,89.95
2018-10-18T06:48:57.832Z,83.97
2018-10-18T06:51:26.979Z,82.15
2018-10-18T06:53:55.969Z,83.52
2018-10-18T06:56:25.183Z,84.58
2018-10-18T06:58:54.369Z,79.72
2018-10-18T07:01:23.397Z,80.42
2018-10-18T07:03:52.390Z,79.47
2018-10-18T07:06:21.390Z,69.50
2018-10-18T07:08:50.471Z,82.45
2018-10-18T07:11:19.638Z,82.25
2018-10-18T07:13:48.606Z,73.25
2018-10-18T07:16:17.585Z,76.40
2018-10-18T07:18:46.557Z,73.62
2018-10-18T07:21:15.830Z,87.72
2018-10-18T07:23:44.861Z,78.20
2018-10-18T07:26:13.864Z,77.67
2018-10-18T07:28:44.214Z,83.87
2018-10-18T07:31:13.185Z,80.35
2018-10-18T07:33:42.128Z,85.53
2018-10-18T07:36:11.205Z,76.40
2018-10-18T07:38:40.295Z,85.65
2018-10-18T07:41:09.295Z,79.92
2018-10-18T07:43:38.444Z,84.95
2018-10-18T07:46:07.439Z,86.25
2018-10-18T07:48:36.423Z,88.75
2018-10-18T07:51:05.407Z,90.80
2018-10-18T07:53:34.434Z,83.97
2018-10-18T07:56:03.877Z,88.47
2018-10-18T07:58:32.886Z,88.85
2018-10-18T08:01:01.867Z,89.15
2018-10-18T08:03:30.857Z,92.20
2018-10-18T08:05:59.834Z,97.25
2018-10-18T08:08:28.816Z,101.15
2018-10-18T08:10:57.804Z,99.70
2018-10-18T08:13:26.937Z,105.52
2018-10-18T08:15:55.931Z,85.55
2018-10-18T08:18:27.845Z,94.00
2018-10-18T08:20:56.864Z,86.40
2018-10-18T08:23:25.814Z,93.92
2018-10-18T08:25:54.752Z,95.05
2018-10-18T08:28:23.805Z,95.17
2018-10-18T08:30:54.592Z,99.52
2018-10-18T08:33:24.932Z,103.75
2018-10-18T08:35:54.549Z,98.67
2018-10-18T08:38:23.932Z,103.38
2018-10-18T08:40:52.918Z,100.27
2018-10-18T08:43:22.193Z,94.20
2018-10-18T08:45:51.418Z,102.27
2018-10-18T08:48:20.382Z,102.32
2018-10-18T08:50:49.341Z,110.30
2018-10-18T08:53:18.348Z,107.47
2018-10-18T08:55:47.334Z,97.22
2018-10-18T08:58:16.332Z,98.22
2018-10-18T09:00:45.357Z,105.40
2018-10-18T09:03:14.358Z,108.92
2018-10-18T09:05:43.458Z,109.05
2018-10-18T09:08:12.403Z,108.27
2018-10-18T09:10:41.394Z,109.97
2018-10-18T09:13:10.450Z,106.60
2018-10-18T09:15:39.589Z,110.45
2018-10-18T09:18:08.566Z,120.37
2018-10-18T09:20:37.511Z,115.62
2018-10-18T09:23:06.518Z,121.40
2018-10-18T09:25:35.550Z,107.37
2018-10-18T09:28:05.033Z,116.73
2018-10-18T09:30:34.000Z,116.37
2018-10-18T09:33:03.048Z,119.33
2018-10-18T09:35:32.069Z,114.72
2018-10-18T09:38:01.109Z,115.17
2018-10-18T09:40:30.102Z,111.90
2018-10-18T09:42:59.088Z,107.37
2018-10-18T09:45:28.226Z,111.47
2018-10-18T09:47:57.424Z,114.03
2018-10-18T09:50:26.408Z,110.88
2018-10-18T09:52:55.430Z,116.90
2018-10-18T09:55:24.566Z,111.45
2018-10-18T09:57:53.700Z,112.08
2018-10-18T10:00:28.015Z,113.70
2018-10-18T10:03:02.320Z,122.53
2018-10-18T10:05:31.317Z,118.55
2018-10-18T10:08:00.295Z,116.03
2018-10-18T10:10:29.337Z,115.85
2018-10-18T10:12:58.372Z,129.07
2018-10-18T10:15:27.520Z,118.37
2018-10-18T10:17:56.481Z,118.87
2018-10-18T10:20:25.463Z,120.37
2018-10-18T10:22:54.445Z,127.20
2018-10-18T10:25:23.415Z,123.35
2018-10-18T10:27:52.372Z,126.90
2018-10-18T10:30:21.400Z,122.33
2018-10-18T10:32:50.606Z,123.45
2018-10-18T10:35:19.817Z,115.35
2018-10-18T10:37:48.981Z,119.80
2018-10-18T10:40:18.061Z,121.07
2018-10-18T10:42:47.175Z,123.65
2018-10-18T10:45:16.385Z,122.85
2018-10-18T10:47:45.884Z,123.20
2018-10-18T10:50:26.925Z,120.80
2018-10-18T10:52:55.959Z,123.97
2018-10-18T10:55:24.930Z,119.05
2018-10-18T10:57:53.925Z,123.75
2018-10-18T11:01:26.704Z,118.15
2018-10-18T11:03:56.966Z,119.28
2018-10-18T11:06:26.472Z,129.70
2018-10-18T11:08:55.596Z,112.88
2018-10-18T11:11:24.783Z,122.45
2018-10-18T11:13:53.842Z,117.00
2018-10-18T11:16:23.006Z,116.85
2018-10-18T11:18:52.040Z,119.08
2018-10-18T11:21:21.118Z,111.57
2018-10-18T11:23:50.235Z,117.30
2018-10-18T11:26:19.392Z,113.88
2018-10-18T11:28:48.501Z,121.70
2018-10-18T11:31:17.541Z,122.80
2018-10-18T11:33:46.517Z,140.55
2018-10-18T11:36:15.578Z,135.95
2018-10-18T11:38:44.695Z,143.80
2018-10-18T11:41:13.688Z,143.22
2018-10-18T11:43:42.671Z,145.92
2018-10-18T11:46:11.617Z,144.75
2018-10-18T11:48:40.609Z,134.35
2018-10-18T11:51:09.591Z,135.30
2018-10-18T11:53:38.623Z,133.72
2018-10-18T11:56:07.958Z,127.58
2018-10-18T11:58:37.055Z,135.50
2018-10-18T12:01:06.131Z,130.18
2018-10-18T12:03:35.261Z,140.10
2018-10-18T12:06:04.790Z,136.35
2018-10-18T12:08:33.809Z,130.37
2018-10-18T12:11:02.813Z,125.10
2018-10-18T12:13:31.975Z,120.35
2018-10-18T12:16:00.989Z,104.78
2018-10-18T12:18:29.980Z,101.02
2018-10-18T12:20:59.001Z,95.25
2018-10-18T12:23:28.006Z,89.85
2018-10-18T12:25:57.032Z,89.17
2018-10-18T12:28:26.207Z,68.37
2018-10-18T12:30:55.189Z,64.60
2018-10-18T12:33:24.183Z,63.78
2018-10-18T12:35:53.187Z,66.72
2018-10-18T12:38:22.134Z,58.02
2018-10-18T12:40:51.208Z,62.17
2018-10-18T12:43:20.351Z,57.60
2018-10-18T12:45:49.321Z,60.90
2018-10-18T12:48:18.401Z,59.25
2018-10-18T12:50:47.506Z,58.13
2018-10-18T12:53:16.515Z,55.00
2018-10-18T12:55:45.515Z,61.53
2018-10-18T12:58:14.493Z,60.55
2018-10-18T13:00:43.494Z,61.05
2018-10-18T13:03:12.470Z,57.43
2018-10-18T13:05:41.435Z,63.08
2018-10-18T13:08:10.450Z,61.98
2018-10-18T13:10:39.562Z,58.38
2018-10-18T13:13:08.572Z,70.85
2018-10-18T13:15:37.562Z,62.15
2018-10-18T13:18:06.837Z,60.25
2018-10-18T13:20:36.033Z,59.13
2018-10-18T13:23:05.012Z,62.48
2018-10-18T13:25:34.050Z,61.20
2018-10-18T13:28:03.047Z,59.50
2018-10-18T13:30:32.089Z,63.63
2018-10-18T13:33:01.031Z,61.90
2018-10-18T13:35:30.001Z,56.63
2018-10-18T13:37:58.972Z,64.03
2018-10-18T13:40:28.157Z,66.90
2018-10-18T13:42:57.327Z,65.37
2018-10-18T13:45:26.295Z,62.48
2018-10-18T13:47:55.300Z,67.85
2018-10-18T13:50:24.326Z,68.52
2018-10-18T13:52:53.307Z,67.10
2018-10-18T13:55:22.324Z,67.87
2018-10-18T13:57:51.831Z,62.60
2018-10-18T14:00:24.787Z,67.97
2018-10-18T14:02:54.393Z,66.00
2018-10-18T14:05:24.185Z,63.58
2018-10-18T14:07:54.132Z,67.82
2018-10-18T14:10:23.306Z,65.97
2018-10-18T14:12:53.021Z,68.57
2018-10-18T14:15:21.992Z,63.60
2018-10-18T14:17:51.030Z,65.47
2018-10-18T14:20:20.335Z,73.00
2018-10-18T14:22:49.396Z,70.47
2018-10-18T14:25:18.389Z,77.12
2018-10-18T14:27:47.467Z,69.10
2018-10-18T14:30:16.461Z,74.85
2018-10-18T14:32:45.617Z,77.27
2018-10-18T14:35:14.774Z,70.72
2018-10-18T14:37:43.794Z,73.00
2018-10-18T14:40:13.211Z,72.65
2018-10-18T14:42:42.197Z,70.50
2018-10-18T14:45:11.303Z,71.80
2018-10-18T14:47:40.534Z,72.55
2018-10-18T14:50:11.622Z,70.75
2018-10-18T14:52:40.746Z,77.97
2018-10-18T14:55:09.784Z,69.67
2018-10-18T14:57:39.118Z,75.28
2018-10-18T15:00:10.163Z,72.78
2018-10-18T15:02:39.135Z,71.50
2018-10-18T15:05:09.242Z,67.65
2018-10-18T15:07:39.463Z,69.00
2018-10-18T15:10:09.947Z,72.50
2018-10-18T15:12:39.079Z,74.30
2018-10-18T15:15:09.046Z,65.30
2018-10-18T15:17:38.086Z,63.52
2018-10-18T15:20:07.980Z,70.05
2018-10-18T15:22:37.293Z,70.78
2018-10-18T15:25:07.164Z,62.43
2018-10-18T15:27:36.451Z,64.20
2018-10-18T15:30:07.512Z,65.75
2018-10-18T15:32:36.696Z,75.00
2018-10-18T15:35:06.832Z,69.15
2018-10-18T15:37:36.021Z,73.47
2018-10-18T15:40:05.333Z,61.73
2018-10-18T15:42:34.343Z,62.27
2018-10-18T15:45:03.460Z,60.52
2018-10-18T15:47:32.690Z,67.60
2018-10-18T15:50:01.771Z,70.78
2018-10-18T15:52:30.767Z,74.47
2018-10-18T15:54:59.742Z,74.75
2018-10-18T15:57:28.739Z,71.55
2018-10-18T15:59:57.770Z,66.70
2018-10-18T16:02:26.937Z,64.80
2018-10-18T16:04:55.965Z,74.58
2018-10-18T16:07:25.129Z,68.47
2018-10-18T16:09:54.126Z,75.57
2018-10-18T16:12:23.081Z,67.42
2018-10-18T16:14:52.059Z,65.03
2018-10-18T16:17:21.071Z,67.80
2018-10-18T16:19:50.050Z,67.12
2018-10-18T16:22:19.383Z,62.27
2018-10-18T16:24:48.385Z,62.55
2018-10-18T16:27:17.334Z,63.45
2018-10-18T16:29:46.336Z,62.55
2018-10-18T16:32:15.418Z,70.87
2018-10-18T16:34:44.451Z,58.65
2018-10-18T16:37:13.421Z,75.03
2018-10-18T16:39:42.385Z,63.05
2018-10-18T16:42:13.086Z,61.42
2018-10-18T16:44:42.063Z,61.00
2018-10-18T16:47:11.010Z,60.12
2018-10-18T16:49:39.996Z,60.33
2018-10-18T16:52:09.020Z,49.13
2018-10-18T16:54:38.172Z,59.08
2018-10-18T16:57:07.308Z,58.35
2018-10-18T16:59:36.302Z,52.60
2018-10-18T17:02:05.696Z,56.75
2018-10-18T17:04:34.817Z,62.23
2018-10-18T17:07:03.982Z,53.35
2018-10-18T17:09:32.960Z,58.92
2018-10-18T17:12:02.032Z,60.73
2018-10-18T17:14:31.508Z,60.88
2018-10-18T17:17:00.486Z,55.60
2018-10-18T17:19:29.506Z,61.75
2018-10-18T17:21:58.484Z,61.90
2018-10-18T17:24:27.446Z,55.00
2018-10-18T17:26:56.474Z,51.23
2018-10-18T17:29:25.638Z,56.88
2018-10-18T17:31:54.670Z,65.25
2018-10-18T17:34:23.793Z,61.33
2018-10-18T17:36:52.752Z,54.85
2018-10-18T17:39:21.745Z,48.85
2018-10-18T17:41:50.718Z,56.42
2018-10-18T17:44:19.749Z,54.03
2018-10-18T17:46:48.746Z,54.13
2018-10-18T17:49:17.762Z,54.50
2018-10-18T17:51:46.746Z,51.80
2018-10-18T17:54:15.775Z,52.03
2018-10-18T17:56:44.864Z,49.75
2018-10-18T17:59:13.823Z,54.38
2018-10-18T18:01:42.851Z,57.70
2018-10-18T18:04:11.823Z,50.83
2018-10-18T18:06:41.203Z,54.60
2018-10-18T18:09:10.221Z,56.08
2018-10-18T18:11:39.499Z,55.75
2018-10-18T18:14:08.499Z,51.48
2018-10-18T18:16:37.535Z,54.08
2018-10-18T18:19:06.739Z,48.87
2018-10-18T18:21:35.713Z,46.37
2018-10-18T18:24:04.734Z,54.03
2018-10-18T18:26:45.073Z,45.43
2018-10-18T18:29:02.922Z,47.48
2018-10-18T18:31:32.236Z,49.40
2018-10-18T18:34:01.178Z,49.67
2018-10-18T18:36:30.110Z,51.65
2018-10-18T18:38:59.060Z,45.35
2018-10-18T18:41:28.198Z,48.87
2018-10-18T18:43:57.182Z,49.93
2018-10-18T18:46:26.148Z,54.05
2018-10-18T18:48:55.076Z,47.65
2018-10-18T18:51:24.022Z,45.52
2018-10-18T18:53:53.150Z,43.95
2018-10-18T18:56:22.108Z,42.60
2018-10-18T18:58:51.084Z,45.08
2018-10-18T19:01:20.042Z,42.53
2018-10-18T19:03:48.984Z,39.45
2018-10-18T19:06:18.006Z,39.48
2018-10-18T19:08:46.928Z,37.33
2018-10-18T19:11:15.854Z,37.83
2018-10-18T19:13:45.136Z,35.15
2018-10-18T19:16:14.450Z,34.50
2018-10-18T19:18:43.422Z,33.50
2018-10-18T19:21:12.499Z,33.42
2018-10-18T19:23:41.560Z,36.13
2018-10-18T19:26:10.584Z,31.17
2018-10-18T19:28:39.658Z,32.28
2018-10-18T19:31:08.776Z,31.80
2018-10-18T19:33:37.726Z,29.70
2018-10-18T19:36:06.714Z,31.27
2018-10-18T19:38:35.759Z,31.10
2018-10-18T19:41:04.858Z,29.70
2018-10-18T19:43:33.792Z,32.05
2018-10-18T19:46:02.725Z,29.55
2018-10-18T19:48:31.890Z,29.92
2018-10-18T19:51:00.869Z,30.23
2018-10-18T19:53:30.036Z,28.80
2018-10-18T19:55:59.008Z,27.70
2018-10-18T19:58:28.156Z,29.92
2018-10-18T20:01:03.888Z,29.35
2018-10-18T20:03:32.941Z,26.62
2018-10-18T20:06:01.875Z,30.32
2018-10-18T20:08:30.808Z,26.65
2018-10-18T20:10:59.790Z,26.50
2018-10-18T20:13:28.775Z,28.40
2018-10-18T20:15:57.768Z,28.57
2018-10-18T20:18:26.790Z,29.32
2018-10-18T20:20:55.923Z,30.97
2018-10-18T20:23:25.048Z,28.73
2018-10-18T20:25:54.062Z,25.45
2018-10-18T20:28:23.105Z,31.30
2018-10-18T20:30:52.035Z,31.17
2018-10-18T20:33:21.022Z,25.88
2018-10-18T20:35:49.972Z,25.65
2018-10-18T20:38:18.905Z,29.37
2018-10-18T20:40:47.836Z,27.98
2018-10-18T20:43:16.796Z,25.62
2018-10-18T20:45:45.723Z,29.55
2018-10-18T20:48:14.717Z,25.43
2018-10-18T20:50:43.779Z,32.17
2018-10-18T20:53:12.828Z,30.35
2018-10-18T20:55:41.900Z,26.25
2018-10-18T20:58:10.819Z,25.40
2018-10-18T21:00:39.762Z,28.25
2018-10-18T21:03:08.800Z,25.55
2018-10-18T21:05:37.907Z,25.20
2018-10-18T21:08:06.865Z,22.32
2018-10-18T21:10:35.806Z,25.65
2018-10-18T21:13:05.302Z,27.75
2018-10-18T21:15:34.427Z,25.12
2018-10-18T21:18:03.358Z,24.23
2018-10-18T21:20:32.480Z,27.27
2018-10-18T21:23:01.481Z,24.40
2018-10-18T21:25:30.594Z,29.15
2018-10-18T21:27:59.551Z,27.75
2018-10-18T21:30:28.477Z,28.73
2018-10-18T21:32:57.464Z,26.23
2018-10-18T21:35:26.620Z,29.20
2018-10-18T21:37:55.771Z,27.27
2018-10-18T21:40:24.706Z,31.30
2018-10-18T21:42:53.680Z,28.20
2018-10-18T21:45:23.308Z,30.77
2018-10-18T21:47:52.812Z,29.35
2018-10-18T21:50:21.726Z,29.67
2018-10-18T21:52:50.660Z,31.93
2018-10-18T21:55:19.598Z,28.38
2018-10-18T21:57:48.542Z,30.60
2018-10-18T22:00:17.861Z,33.48
2018-10-18T22:02:47.262Z,30.23
2018-10-18T22:05:16.325Z,29.37
2018-10-18T22:07:45.486Z,30.52
2018-10-18T22:10:14.465Z,33.28
2018-10-18T22:12:43.422Z,30.97
2018-10-18T22:15:12.426Z,33.20
2018-10-18T22:17:41.527Z,28.25
2018-10-18T22:20:10.821Z,33.15
2018-10-18T22:22:39.785Z,32.63
2018-10-18T22:25:09.771Z,32.10
2018-10-18T22:27:38.719Z,27.70
2018-10-18T22:30:08.413Z,28.80
2018-10-18T22:32:37.423Z,32.42
2018-10-18T22:35:06.857Z,30.85
2018-10-18T22:37:36.079Z,31.90
2018-10-18T22:40:05.737Z,30.57
2018-10-18T22:42:34.710Z,28.00
2018-10-18T22:45:03.743Z,32.13
2018-10-18T22:47:32.872Z,31.82
2018-10-18T22:50:01.799Z,30.57
2018-10-18T22:52:30.752Z,32.40
2018-10-18T22:54:59.663Z,28.20
2018-10-18T22:57:28.631Z,30.57
2018-10-18T22:59:57.768Z,28.20
2018-10-18T23:02:26.794Z,30.10
2018-10-18T23:04:55.781Z,25.80
2018-10-18T23:07:24.956Z,29.92
2018-10-18T23:09:53.891Z,30.35
2018-10-18T23:12:22.838Z,29.63
2018-10-18T23:14:51.779Z,28.35
2018-10-18T23:17:20.725Z,26.27
2018-10-18T23:19:50.077Z,30.82
2018-10-18T23:22:19.012Z,30.48
2018-10-18T23:24:48.163Z,28.62
2018-10-18T23:27:16.334Z,30.23
2018-10-18T23:29:45.280Z,28.55
2018-10-18T23:32:14.224Z,30.68
2018-10-18T23:34:43.163Z,30.40
2018-10-18T23:37:12.474Z,28.55
2018-10-18T23:39:41.418Z,28.60
2018-10-18T23:42:10.390Z,30.48
2018-10-18T23:44:39.298Z,28.92
2018-10-18T23:47:08.252Z,28.17
2018-10-18T23:49:37.398Z,27.07
2018-10-18T23:52:06.340Z,25.55
2018-10-18T23:54:35.270Z,23.95
2018-10-18T23:57:04.240Z,28.57
2018-10-18T23:59:33.376Z,27.80
